Time;durP1;ratioP1;P1;durP2;ratioP2;P2;SDS_P1;SDS_P2;PMS_P1;PMS_P2;Temp;Humidity;BMP_temperature;BMP_pressure;BME280_temperature;BME280_humidity;BME280_pressure;Samples;Min_cycle;Max_cycle;Signal;HPM_P1;HPM_P2
2023/04/20 00:00:56;;;;;;;25.40;15.60;;;;;;;-128.00;-1.00;-1.00;18885;293;7504632;-34
2023/04/20 00:03:21;;;;;;;20.50;11.40;;;;;;;-128.00;-1.00;-1.00;18512;293;7506161;-34
2023/04/20 00:05:50;;;;;;;31.00;18.30;;;;;;;-128.00;-1.00;-1.00;18892;293;7504953;-34
2023/04/20 00:08:16;;;;;;;26.50;16.20;;;;;;;-128.00;-1.00;-1.00;18507;334;7505163;-34
2023/04/20 00:10:43;;;;;;;30.20;18.40;;;;;;;-128.00;-1.00;-1.00;18529;293;7504495;-34
2023/04/20 00:13:10;;;;;;;19.10;12.30;;;;;;;-128.00;-1.00;-1.00;18459;294;7504255;-34
2023/04/20 00:15:35;;;;;;;17.50;12.90;;;;;;;-128.00;-1.00;-1.00;18524;334;7505782;-30
2023/04/20 00:18:01;;;;;;;19.90;12.50;;;;;;;-128.00;-1.00;-1.00;18483;293;7504828;-34
2023/04/20 00:20:27;;;;;;;22.70;14.90;;;;;;;-128.00;-1.00;-1.00;18505;294;7504270;-35
2023/04/20 00:22:53;;;;;;;23.00;13.60;;;;;;;-128.00;-1.00;-1.00;18498;286;7506027;-32
2023/04/20 00:25:19;;;;;;;29.90;14.30;;;;;;;-128.00;-1.00;-1.00;18495;293;7504883;-31
2023/04/20 00:27:45;;;;;;;25.80;13.60;;;;;;;-128.00;-1.00;-1.00;18465;295;7504328;-34
2023/04/20 00:30:12;;;;;;;34.40;18.90;;;;;;;-128.00;-1.00;-1.00;18923;293;7504562;-31
2023/04/20 00:32:38;;;;;;;30.80;17.10;;;;;;;-128.00;-1.00;-1.00;18512;293;7504544;-34
2023/04/20 00:35:04;;;;;;;20.90;13.10;;;;;;;-128.00;-1.00;-1.00;18511;317;7507194;-31
2023/04/20 00:37:30;;;;;;;16.50;12.10;;;;;;;-128.00;-1.00;-1.00;18453;295;7504773;-34
2023/04/20 00:39:56;;;;;;;27.70;15.40;;;;;;;-128.00;-1.00;-1.00;18893;293;7504477;-35
2023/04/20 00:42:22;;;;;;;26.40;16.70;;;;;;;-128.00;-1.00;-1.00;18900;288;7504401;-31
2023/04/20 00:44:49;;;;;;;36.50;17.70;;;;;;;-128.00;-1.00;-1.00;18907;290;7504611;-32
2023/04/20 00:47:15;;;;;;;33.00;18.10;;;;;;;-128.00;-1.00;-1.00;18509;334;7506325;-35
2023/04/20 00:49:41;;;;;;;25.90;15.90;;;;;;;-128.00;-1.00;-1.00;18480;288;7507174;-31
2023/04/20 00:52:07;;;;;;;24.60;15.50;;;;;;;-128.00;-1.00;-1.00;18481;295;7506266;-34
2023/04/20 00:54:32;;;;;;;34.40;19.20;;;;;;;-128.00;-1.00;-1.00;18476;319;7506328;-31
2023/04/20 00:56:59;;;;;;;27.80;16.60;;;;;;;-128.00;-1.00;-1.00;18917;288;7504679;-34
2023/04/20 00:59:25;;;;;;;30.70;18.90;;;;;;;-128.00;-1.00;-1.00;18879;295;7504335;-34
2023/04/20 01:01:51;;;;;;;28.00;18.20;;;;;;;-128.00;-1.00;-1.00;18873;299;7504400;-34
2023/04/20 01:04:17;;;;;;;31.50;17.00;;;;;;;-128.00;-1.00;-1.00;18875;295;7504528;-34
2023/04/20 01:06:44;;;;;;;38.50;19.40;;;;;;;-128.00;-1.00;-1.00;18859;285;7504901;-34
2023/04/20 01:09:11;;;;;;;31.90;19.30;;;;;;;-128.00;-1.00;-1.00;18884;295;7504327;-32
2023/04/20 01:11:37;;;;;;;24.10;13.70;;;;;;;-128.00;-1.00;-1.00;18464;295;7504327;-34
2023/04/20 01:14:03;;;;;;;23.40;15.10;;;;;;;-128.00;-1.00;-1.00;18481;303;7504840;-31
2023/04/20 01:16:30;;;;;;;26.60;15.90;;;;;;;-128.00;-1.00;-1.00;18882;295;7506397;-31
2023/04/20 01:18:56;;;;;;;20.20;13.80;;;;;;;-128.00;-1.00;-1.00;18487;288;7504911;-31
2023/04/20 01:21:22;;;;;;;28.40;17.00;;;;;;;-128.00;-1.00;-1.00;18478;295;7504238;-34
2023/04/20 01:23:48;;;;;;;23.20;15.10;;;;;;;-128.00;-1.00;-1.00;18455;287;7507463;-31
2023/04/20 01:26:15;;;;;;;33.30;17.30;;;;;;;-128.00;-1.00;-1.00;18495;311;7504359;-32
2023/04/20 01:28:41;;;;;;;26.30;15.90;;;;;;;-128.00;-1.00;-1.00;18478;287;7505094;-32
2023/04/20 01:31:07;;;;;;;21.70;12.90;;;;;;;-128.00;-1.00;-1.00;18470;295;7505976;-35
2023/04/20 01:33:33;;;;;;;25.20;15.00;;;;;;;-128.00;-1.00;-1.00;18477;295;7504631;-35
2023/04/20 01:35:59;;;;;;;24.50;15.10;;;;;;;-128.00;-1.00;-1.00;18892;295;7504842;-35
2023/04/20 01:38:26;;;;;;;29.30;16.50;;;;;;;-128.00;-1.00;-1.00;18907;319;7504511;-31
2023/04/20 01:40:52;;;;;;;36.10;18.50;;;;;;;-128.00;-1.00;-1.00;18481;289;7504432;-32
2023/04/20 01:43:18;;;;;;;24.70;12.60;;;;;;;-128.00;-1.00;-1.00;18480;347;7504565;-34
2023/04/20 01:45:44;;;;;;;22.90;13.80;;;;;;;-128.00;-1.00;-1.00;18512;295;7504684;-32
2023/04/20 01:48:10;;;;;;;19.50;12.30;;;;;;;-128.00;-1.00;-1.00;18474;288;7505939;-34
2023/04/20 01:50:36;;;;;;;27.60;16.20;;;;;;;-128.00;-1.00;-1.00;18911;294;7504812;-31
2023/04/20 01:53:02;;;;;;;25.80;16.20;;;;;;;-128.00;-1.00;-1.00;18912;294;7504664;-31
2023/04/20 01:55:28;;;;;;;24.20;15.80;;;;;;;-128.00;-1.00;-1.00;18885;294;7504606;-31
2023/04/20 01:57:54;;;;;;;37.00;21.10;;;;;;;-128.00;-1.00;-1.00;18885;296;7505353;-31
2023/04/20 02:00:21;;;;;;;33.60;19.90;;;;;;;-128.00;-1.00;-1.00;18865;294;7504750;-34
2023/04/20 02:02:47;;;;;;;33.70;16.40;;;;;;;-128.00;-1.00;-1.00;18915;288;7504551;-31
2023/04/20 02:05:13;;;;;;;22.70;15.70;;;;;;;-128.00;-1.00;-1.00;18901;294;7504811;-34
2023/04/20 02:07:40;;;;;;;31.00;18.30;;;;;;;-128.00;-1.00;-1.00;18873;294;7504459;-34
2023/04/20 02:10:06;;;;;;;34.70;19.70;;;;;;;-128.00;-1.00;-1.00;18876;295;7504873;-31
2023/04/20 02:12:32;;;;;;;31.30;19.30;;;;;;;-128.00;-1.00;-1.00;18498;294;7504864;-31
2023/04/20 02:14:58;;;;;;;41.70;24.10;;;;;;;-128.00;-1.00;-1.00;18874;346;7504273;-31
2023/04/20 02:17:25;;;;;;;34.70;20.30;;;;;;;-128.00;-1.00;-1.00;18872;294;7504469;-33
2023/04/20 02:19:50;;;;;;;42.10;21.40;;;;;;;-128.00;-1.00;-1.00;18492;294;7505128;-34
2023/04/20 02:22:16;;;;;;;35.30;20.00;;;;;;;-128.00;-1.00;-1.00;18474;295;7504512;-32
2023/04/20 02:24:42;;;;;;;39.40;22.70;;;;;;;-128.00;-1.00;-1.00;18502;294;7506041;-34
2023/04/20 02:27:09;;;;;;;36.00;21.50;;;;;;;-128.00;-1.00;-1.00;18476;294;7506254;-35
2023/04/20 02:29:35;;;;;;;41.70;23.80;;;;;;;-128.00;-1.00;-1.00;18513;294;7504764;-30
2023/04/20 02:32:01;;;;;;;45.40;22.70;;;;;;;-128.00;-1.00;-1.00;18483;294;7505169;-31
2023/04/20 02:34:27;;;;;;;58.40;30.60;;;;;;;-128.00;-1.00;-1.00;18872;294;7505045;-34
2023/04/20 02:36:53;;;;;;;49.40;25.80;;;;;;;-128.00;-1.00;-1.00;18888;283;7504209;-34
2023/04/20 02:39:19;;;;;;;50.00;27.60;;;;;;;-128.00;-1.00;-1.00;18885;294;7504574;-34
2023/04/20 02:41:45;;;;;;;62.10;31.20;;;;;;;-128.00;-1.00;-1.00;18918;295;7504406;-31
2023/04/20 02:44:12;;;;;;;53.80;27.70;;;;;;;-128.00;-1.00;-1.00;18899;296;7504441;-34
2023/04/20 02:46:38;;;;;;;50.30;28.20;;;;;;;-128.00;-1.00;-1.00;18895;294;7504295;-33
2023/04/20 02:49:04;;;;;;;53.20;30.40;;;;;;;-128.00;-1.00;-1.00;18903;294;7504588;-36
2023/04/20 02:51:31;;;;;;;56.30;29.90;;;;;;;-128.00;-1.00;-1.00;18878;296;7505970;-35
2023/04/20 02:53:56;;;;;;;64.90;33.30;;;;;;;-128.00;-1.00;-1.00;18535;294;7505277;-35
2023/04/20 02:56:22;;;;;;;52.50;29.00;;;;;;;-128.00;-1.00;-1.00;18479;294;7504734;-35
2023/04/20 02:58:50;;;;;;;64.30;29.10;;;;;;;-128.00;-1.00;-1.00;18902;296;7505139;-32
2023/04/20 03:01:16;;;;;;;50.20;27.10;;;;;;;-128.00;-1.00;-1.00;18497;296;7506084;-32
2023/04/20 03:03:42;;;;;;;70.00;34.00;;;;;;;-128.00;-1.00;-1.00;18463;294;7505026;-32
2023/04/20 03:06:08;;;;;;;75.50;36.40;;;;;;;-128.00;-1.00;-1.00;18916;294;7505311;-35
2023/04/20 03:08:34;;;;;;;65.40;29.40;;;;;;;-128.00;-1.00;-1.00;18910;295;7504741;-34
2023/04/20 03:11:00;;;;;;;84.60;36.60;;;;;;;-128.00;-1.00;-1.00;18875;288;7504551;-31
2023/04/20 03:13:27;;;;;;;94.80;41.10;;;;;;;-128.00;-1.00;-1.00;18877;298;7504760;-34
2023/04/20 03:15:53;;;;;;;92.20;41.30;;;;;;;-128.00;-1.00;-1.00;18911;294;7505265;-31
2023/04/20 03:18:19;;;;;;;96.60;43.40;;;;;;;-128.00;-1.00;-1.00;18875;294;7504185;-30
2023/04/20 03:20:45;;;;;;;93.40;37.00;;;;;;;-128.00;-1.00;-1.00;18868;294;7504887;-31
2023/04/20 03:23:11;;;;;;;86.40;38.40;;;;;;;-128.00;-1.00;-1.00;18886;338;7504353;-31
2023/04/20 03:25:37;;;;;;;86.40;38.00;;;;;;;-128.00;-1.00;-1.00;18877;296;7504846;-34
2023/04/20 03:28:04;;;;;;;92.60;39.10;;;;;;;-128.00;-1.00;-1.00;18887;294;7505120;-34
2023/04/20 03:30:30;;;;;;;98.60;40.10;;;;;;;-128.00;-1.00;-1.00;18904;309;7505013;-36
2023/04/20 03:32:56;;;;;;;83.90;37.80;;;;;;;-128.00;-1.00;-1.00;18876;302;7505217;-35
2023/04/20 03:35:23;;;;;;;71.30;36.00;;;;;;;-128.00;-1.00;-1.00;18896;294;7505363;-35
2023/04/20 03:37:49;;;;;;;72.40;32.50;;;;;;;-128.00;-1.00;-1.00;18912;294;7504925;-32
2023/04/20 03:40:15;;;;;;;81.20;38.10;;;;;;;-128.00;-1.00;-1.00;18881;330;7505904;-34
2023/04/20 03:42:41;;;;;;;80.10;36.80;;;;;;;-128.00;-1.00;-1.00;18903;294;7506775;-31
2023/04/20 03:45:08;;;;;;;71.50;35.80;;;;;;;-128.00;-1.00;-1.00;18866;294;7504614;-31
2023/04/20 03:47:34;;;;;;;86.50;38.20;;;;;;;-128.00;-1.00;-1.00;18909;294;7504733;-34
2023/04/20 03:50:00;;;;;;;75.50;35.40;;;;;;;-128.00;-1.00;-1.00;18921;294;7504993;-30
2023/04/20 03:52:26;;;;;;;68.40;34.10;;;;;;;-128.00;-1.00;-1.00;18897;346;7505232;-31
2023/04/20 03:54:53;;;;;;;79.50;34.20;;;;;;;-128.00;-1.00;-1.00;18470;288;7504560;-35
2023/04/20 03:57:19;;;;;;;72.50;34.00;;;;;;;-128.00;-1.00;-1.00;18495;296;7505773;-33
2023/04/20 03:59:44;;;;;;;58.70;29.50;;;;;;;-128.00;-1.00;-1.00;18497;294;7506320;-35
2023/04/20 04:02:12;;;;;;;54.30;27.20;;;;;;;-128.00;-1.00;-1.00;18482;294;7504341;-31
2023/04/20 04:04:38;;;;;;;86.00;37.00;;;;;;;-128.00;-1.00;-1.00;18476;288;7504495;-35
2023/04/20 04:07:04;;;;;;;69.70;32.00;;;;;;;-128.00;-1.00;-1.00;18490;338;7505043;-32
2023/04/20 04:09:29;;;;;;;69.60;32.20;;;;;;;-128.00;-1.00;-1.00;18484;294;7505456;-34
2023/04/20 04:11:56;;;;;;;77.10;30.50;;;;;;;-128.00;-1.00;-1.00;18508;293;7504778;-35
2023/04/20 04:14:21;;;;;;;50.50;25.70;;;;;;;-128.00;-1.00;-1.00;18501;288;7504382;-35
2023/04/20 04:16:48;;;;;;;80.80;35.50;;;;;;;-128.00;-1.00;-1.00;18896;294;7504797;-31
2023/04/20 04:19:14;;;;;;;88.50;35.20;;;;;;;-128.00;-1.00;-1.00;18920;346;7505346;-35
2023/04/20 04:21:40;;;;;;;91.90;34.80;;;;;;;-128.00;-1.00;-1.00;18887;294;7505841;-33
2023/04/20 04:24:07;;;;;;;54.30;26.30;;;;;;;-128.00;-1.00;-1.00;18515;293;7504525;-32
2023/04/20 04:26:33;;;;;;;67.30;31.40;;;;;;;-128.00;-1.00;-1.00;18511;346;7504906;-33
2023/04/20 04:28:58;;;;;;;57.60;30.00;;;;;;;-128.00;-1.00;-1.00;18480;305;7504557;-32
2023/04/20 04:31:24;;;;;;;68.30;32.60;;;;;;;-128.00;-1.00;-1.00;18497;294;7505051;-35
2023/04/20 04:33:50;;;;;;;84.70;35.70;;;;;;;-128.00;-1.00;-1.00;18471;294;7506765;-32
2023/04/20 04:36:16;;;;;;;77.50;35.90;;;;;;;-128.00;-1.00;-1.00;18881;294;7504630;-32
2023/04/20 05:18:12;;;;;;;122.50;42.90;;;;;;;-128.00;-1.00;-1.00;19549;308;8045745;-36
2023/04/20 05:20:39;;;;;;;109.40;41.60;;;;;;;-128.00;-1.00;-1.00;18594;296;7506094;-33
2023/04/20 05:23:05;;;;;;;97.30;37.00;;;;;;;-128.00;-1.00;-1.00;18895;295;7504239;-36
2023/04/20 05:25:31;;;;;;;101.60;36.50;;;;;;;-128.00;-1.00;-1.00;18477;295;7504561;-33
2023/04/20 05:27:58;;;;;;;85.70;35.40;;;;;;;-128.00;-1.00;-1.00;18882;295;7504403;-32
2023/04/20 05:30:24;;;;;;;106.50;40.00;;;;;;;-128.00;-1.00;-1.00;18868;295;7505233;-35
2023/04/20 05:32:50;;;;;;;82.60;32.60;;;;;;;-128.00;-1.00;-1.00;18894;288;7504977;-32
2023/04/20 05:35:16;;;;;;;99.60;37.90;;;;;;;-128.00;-1.00;-1.00;18863;295;7504171;-33
2023/04/20 05:37:43;;;;;;;93.40;40.70;;;;;;;-128.00;-1.00;-1.00;18883;318;7505514;-32
2023/04/20 05:40:10;;;;;;;116.70;41.50;;;;;;;-128.00;-1.00;-1.00;18867;295;7504817;-32
2023/04/20 05:42:36;;;;;;;89.10;32.00;;;;;;;-128.00;-1.00;-1.00;18483;295;7504533;-35
2023/04/20 05:45:02;;;;;;;96.90;37.80;;;;;;;-128.00;-1.00;-1.00;18904;295;7504344;-35
2023/04/20 05:47:28;;;;;;;100.40;35.40;;;;;;;-128.00;-1.00;-1.00;18491;295;7504871;-31
2023/04/20 05:49:54;;;;;;;83.80;33.40;;;;;;;-128.00;-1.00;-1.00;18870;288;7505780;-32
2023/04/20 05:52:20;;;;;;;75.10;31.90;;;;;;;-128.00;-1.00;-1.00;18861;306;7504586;-31
2023/04/20 05:54:48;;;;;;;96.10;34.60;;;;;;;-128.00;-1.00;-1.00;18867;346;7504583;-31
2023/04/20 05:57:14;;;;;;;103.30;36.80;;;;;;;-128.00;-1.00;-1.00;18460;311;7506458;-32
2023/04/20 05:59:40;;;;;;;114.60;39.90;;;;;;;-128.00;-1.00;-1.00;18482;346;7504800;-32
2023/04/20 06:02:05;;;;;;;132.80;46.40;;;;;;;-128.00;-1.00;-1.00;18478;288;7506600;-35
2023/04/20 06:04:32;;;;;;;119.60;42.40;;;;;;;-128.00;-1.00;-1.00;18843;308;7504853;-35
2023/04/20 06:06:59;;;;;;;113.30;42.10;;;;;;;-128.00;-1.00;-1.00;18470;335;7504514;-34
2023/04/20 06:09:25;;;;;;;104.60;42.50;;;;;;;-128.00;-1.00;-1.00;18497;295;7504575;-31
2023/04/20 06:11:50;;;;;;;120.70;38.60;;;;;;;-128.00;-1.00;-1.00;18496;343;7504495;-31
2023/04/20 06:14:16;;;;;;;86.90;34.40;;;;;;;-128.00;-1.00;-1.00;18871;295;7504768;-31
2023/04/20 06:16:43;;;;;;;92.90;35.50;;;;;;;-128.00;-1.00;-1.00;18881;295;7504435;-35
2023/04/20 06:19:09;;;;;;;120.80;43.90;;;;;;;-128.00;-1.00;-1.00;18874;288;7505169;-35
2023/04/20 06:21:36;;;;;;;83.10;34.70;;;;;;;-128.00;-1.00;-1.00;18896;295;7504817;-32
2023/04/20 06:24:02;;;;;;;78.60;31.80;;;;;;;-128.00;-1.00;-1.00;18892;295;7505043;-34
2023/04/20 06:26:28;;;;;;;79.40;32.30;;;;;;;-128.00;-1.00;-1.00;18485;339;7506196;-35
2023/04/20 06:28:54;;;;;;;85.80;34.00;;;;;;;-128.00;-1.00;-1.00;18480;295;7504560;-35
2023/04/20 06:31:20;;;;;;;88.20;34.40;;;;;;;-128.00;-1.00;-1.00;18504;347;7506632;-35
2023/04/20 06:33:45;;;;;;;103.60;36.00;;;;;;;-128.00;-1.00;-1.00;18471;310;7504648;-31
2023/04/20 06:36:11;;;;;;;85.10;35.80;;;;;;;-128.00;-1.00;-1.00;18476;295;7504344;-32
2023/04/20 06:38:37;;;;;;;90.80;34.70;;;;;;;-128.00;-1.00;-1.00;18482;295;7505997;-35
2023/04/20 06:41:02;;;;;;;93.20;35.10;;;;;;;-128.00;-1.00;-1.00;18454;324;7506141;-35
2023/04/20 06:43:28;;;;;;;88.40;37.50;;;;;;;-128.00;-1.00;-1.00;18478;295;7506203;-32
2023/04/20 06:45:54;;;;;;;70.10;32.40;;;;;;;-128.00;-1.00;-1.00;18455;347;7504739;-31
2023/04/20 06:48:20;;;;;;;80.90;36.10;;;;;;;-128.00;-1.00;-1.00;18487;296;7504349;-31
2023/04/20 06:50:49;;;;;;;81.00;33.00;;;;;;;-128.00;-1.00;-1.00;18495;295;7504817;-31
2023/04/20 06:53:15;;;;;;;89.90;36.50;;;;;;;-128.00;-1.00;-1.00;18468;294;7506312;-35
2023/04/20 06:55:41;;;;;;;83.80;31.50;;;;;;;-128.00;-1.00;-1.00;18496;295;7506001;-32
2023/04/20 06:58:06;;;;;;;85.90;34.20;;;;;;;-128.00;-1.00;-1.00;18470;295;7504509;-35
2023/04/20 07:00:32;;;;;;;58.00;26.30;;;;;;;-128.00;-1.00;-1.00;18497;295;7506011;-35
2023/04/20 07:02:58;;;;;;;86.00;35.20;;;;;;;-128.00;-1.00;-1.00;18887;295;7506285;-32
2023/04/20 07:05:27;;;;;;;91.50;36.10;;;;;;;-128.00;-1.00;-1.00;18886;294;7505072;-35
2023/04/20 07:07:53;;;;;;;59.00;27.80;;;;;;;-128.00;-1.00;-1.00;18472;294;7505971;-33
2023/04/20 07:10:19;;;;;;;84.90;30.60;;;;;;;-128.00;-1.00;-1.00;18464;295;7506180;-34
2023/04/20 07:12:45;;;;;;;81.30;31.00;;;;;;;-128.00;-1.00;-1.00;18488;331;7505750;-35
2023/04/20 07:15:11;;;;;;;85.80;37.10;;;;;;;-128.00;-1.00;-1.00;18474;295;7505885;-32
2023/04/20 07:17:37;;;;;;;70.70;31.80;;;;;;;-128.00;-1.00;-1.00;18473;294;7504956;-34
2023/04/20 07:20:07;;;;;;;62.50;30.10;;;;;;;-128.00;-1.00;-1.00;18490;339;7506035;-31
2023/04/20 07:22:35;;;;;;;61.50;24.20;;;;;;;-128.00;-1.00;-1.00;18490;295;7504862;-31
2023/04/20 07:25:04;;;;;;;54.30;26.70;;;;;;;-128.00;-1.00;-1.00;18481;299;7505883;-34
2023/04/20 07:27:32;;;;;;;61.30;29.30;;;;;;;-128.00;-1.00;-1.00;18477;318;7504485;-31
2023/04/20 07:29:58;;;;;;;44.20;23.20;;;;;;;-128.00;-1.00;-1.00;18469;295;7504326;-31
2023/04/20 07:32:23;;;;;;;58.40;26.60;;;;;;;-128.00;-1.00;-1.00;18474;288;7506446;-32
2023/04/20 07:34:49;;;;;;;63.50;25.70;;;;;;;-128.00;-1.00;-1.00;18886;335;7504598;-31
2023/04/20 07:37:16;;;;;;;62.50;31.20;;;;;;;-128.00;-1.00;-1.00;18915;295;7504901;-35
2023/04/20 07:39:42;;;;;;;56.60;29.10;;;;;;;-128.00;-1.00;-1.00;18849;295;7504200;-34
2023/04/20 07:42:08;;;;;;;67.80;30.40;;;;;;;-128.00;-1.00;-1.00;18864;310;7504303;-31
2023/04/20 07:44:35;;;;;;;91.00;35.30;;;;;;;-128.00;-1.00;-1.00;18913;294;7504357;-31
2023/04/20 07:47:02;;;;;;;108.90;39.30;;;;;;;-128.00;-1.00;-1.00;18487;295;7506304;-32
2023/04/20 07:49:28;;;;;;;56.20;28.70;;;;;;;-128.00;-1.00;-1.00;18487;295;7504647;-35
2023/04/20 07:51:54;;;;;;;72.40;29.80;;;;;;;-128.00;-1.00;-1.00;18480;296;7505028;-32
2023/04/20 07:54:19;;;;;;;53.10;25.90;;;;;;;-128.00;-1.00;-1.00;18488;295;7506270;-34
2023/04/20 07:56:45;;;;;;;67.60;28.40;;;;;;;-128.00;-1.00;-1.00;18484;295;7504648;-31
2023/04/20 07:59:11;;;;;;;58.90;29.60;;;;;;;-128.00;-1.00;-1.00;18875;318;7504767;-34
2023/04/20 08:01:37;;;;;;;66.40;31.70;;;;;;;-128.00;-1.00;-1.00;18891;295;7505069;-31
2023/04/20 08:04:04;;;;;;;77.80;33.50;;;;;;;-128.00;-1.00;-1.00;18868;294;7504669;-35
2023/04/20 08:06:30;;;;;;;66.10;31.50;;;;;;;-128.00;-1.00;-1.00;18862;294;7504607;-31
2023/04/20 08:08:56;;;;;;;65.50;30.80;;;;;;;-128.00;-1.00;-1.00;18871;288;7505619;-30
2023/04/20 08:11:23;;;;;;;70.50;33.90;;;;;;;-128.00;-1.00;-1.00;18880;295;7504582;-32
2023/04/20 08:13:49;;;;;;;55.90;29.00;;;;;;;-128.00;-1.00;-1.00;18460;295;7506566;-35
2023/04/20 08:16:15;;;;;;;67.70;30.40;;;;;;;-128.00;-1.00;-1.00;18900;295;7504475;-35
2023/04/20 08:18:42;;;;;;;68.90;29.50;;;;;;;-128.00;-1.00;-1.00;18877;310;7504486;-31
2023/04/20 08:21:08;;;;;;;53.80;26.80;;;;;;;-128.00;-1.00;-1.00;18899;294;7505191;-31
2023/04/20 08:23:34;;;;;;;58.00;29.20;;;;;;;-128.00;-1.00;-1.00;18892;339;7505429;-35
2023/04/20 08:26:00;;;;;;;50.40;23.40;;;;;;;-128.00;-1.00;-1.00;18467;295;7506199;-34
2023/04/20 08:28:26;;;;;;;58.30;26.90;;;;;;;-128.00;-1.00;-1.00;18456;318;7505215;-31
2023/04/20 08:30:52;;;;;;;61.20;27.40;;;;;;;-128.00;-1.00;-1.00;18900;299;7504571;-30
2023/04/20 08:33:18;;;;;;;51.40;24.60;;;;;;;-128.00;-1.00;-1.00;18858;311;7504549;-34
2023/04/20 08:35:45;;;;;;;56.00;27.00;;;;;;;-128.00;-1.00;-1.00;18867;289;7504501;-34
2023/04/20 08:38:11;;;;;;;53.10;23.70;;;;;;;-128.00;-1.00;-1.00;18487;295;7504687;-33
2023/04/20 08:40:37;;;;;;;64.90;30.20;;;;;;;-128.00;-1.00;-1.00;18849;303;7504573;-37
2023/04/20 08:43:03;;;;;;;47.40;23.20;;;;;;;-128.00;-1.00;-1.00;18875;294;7504405;-37
2023/04/20 08:45:30;;;;;;;48.40;25.00;;;;;;;-128.00;-1.00;-1.00;18886;288;7505063;-36
2023/04/20 08:47:57;;;;;;;60.40;27.70;;;;;;;-128.00;-1.00;-1.00;18873;302;7505199;-30
2023/04/20 08:50:23;;;;;;;53.20;26.00;;;;;;;-128.00;-1.00;-1.00;18468;295;7504839;-34
2023/04/20 08:52:49;;;;;;;55.30;25.00;;;;;;;-128.00;-1.00;-1.00;18475;294;7506102;-31
2023/04/20 08:55:16;;;;;;;67.00;28.50;;;;;;;-128.00;-1.00;-1.00;18438;296;7505985;-31
2023/04/20 08:57:41;;;;;;;50.10;26.00;;;;;;;-128.00;-1.00;-1.00;18447;295;7504146;-32
2023/04/20 09:00:09;;;;;;;59.00;28.50;;;;;;;-128.00;-1.00;-1.00;18468;296;7506217;-32
2023/04/20 09:02:47;;;;;;;53.00;25.10;;;;;;;-128.00;-1.00;-1.00;18490;303;7504905;-35
2023/04/20 09:05:12;;;;;;;51.30;23.90;;;;;;;-128.00;-1.00;-1.00;18499;295;7505027;-35
2023/04/20 09:07:38;;;;;;;51.50;21.80;;;;;;;-128.00;-1.00;-1.00;18494;295;7505504;-32
2023/04/20 09:10:04;;;;;;;47.40;22.20;;;;;;;-128.00;-1.00;-1.00;18460;296;7506064;-35
2023/04/20 09:12:40;;;;;;;43.50;23.40;;;;;;;-128.00;-1.00;-1.00;18439;295;7505809;-32
2023/04/20 09:15:06;;;;;;;50.90;21.00;;;;;;;-128.00;-1.00;-1.00;18475;295;7505363;-36
2023/04/20 09:17:33;;;;;;;47.30;23.60;;;;;;;-128.00;-1.00;-1.00;18473;339;7504304;-32
2023/04/20 09:19:59;;;;;;;50.50;24.00;;;;;;;-128.00;-1.00;-1.00;18476;288;7506091;-35
2023/04/20 09:22:29;;;;;;;50.20;25.50;;;;;;;-128.00;-1.00;-1.00;18486;347;7506125;-35
2023/04/20 09:24:55;;;;;;;42.60;21.60;;;;;;;-128.00;-1.00;-1.00;18471;347;7504313;-35
2023/04/20 09:27:22;;;;;;;56.30;28.20;;;;;;;-128.00;-1.00;-1.00;18486;295;7504269;-32
2023/04/20 09:30:00;;;;;;;44.30;22.80;;;;;;;-128.00;-1.00;-1.00;18475;295;7504108;-32
2023/04/20 09:32:27;;;;;;;44.60;22.40;;;;;;;-128.00;-1.00;-1.00;18474;294;7504829;-35
2023/04/20 09:34:53;;;;;;;42.80;20.80;;;;;;;-128.00;-1.00;-1.00;18486;294;7504378;-35
2023/04/20 09:37:19;;;;;;;43.20;20.50;;;;;;;-128.00;-1.00;-1.00;18489;294;7504349;-32
2023/04/20 09:39:45;;;;;;;44.00;22.70;;;;;;;-128.00;-1.00;-1.00;18509;294;7504930;-32
2023/04/20 09:42:12;;;;;;;39.50;21.60;;;;;;;-128.00;-1.00;-1.00;18494;294;7505907;-32
2023/04/20 09:44:38;;;;;;;47.70;22.60;;;;;;;-128.00;-1.00;-1.00;18454;294;7504406;-35
2023/04/20 09:47:04;;;;;;;45.30;20.60;;;;;;;-128.00;-1.00;-1.00;18468;296;7505022;-35
2023/04/20 09:49:31;;;;;;;56.60;23.80;;;;;;;-128.00;-1.00;-1.00;18482;295;7504343;-31
2023/04/20 09:51:56;;;;;;;46.20;23.90;;;;;;;-128.00;-1.00;-1.00;18484;288;7504290;-31
2023/04/20 09:54:22;;;;;;;53.40;27.00;;;;;;;-128.00;-1.00;-1.00;18489;295;7506155;-36
2023/04/20 09:56:48;;;;;;;40.80;21.80;;;;;;;-128.00;-1.00;-1.00;18887;346;7505148;-31
2023/04/20 09:59:16;;;;;;;47.00;23.00;;;;;;;-128.00;-1.00;-1.00;18864;296;7504286;-35
2023/04/20 10:01:42;;;;;;;61.90;27.50;;;;;;;-128.00;-1.00;-1.00;18485;346;7506055;-35
2023/04/20 10:04:09;;;;;;;42.90;18.70;;;;;;;-128.00;-1.00;-1.00;18470;339;7504099;-35
2023/04/20 10:06:35;;;;;;;44.20;21.50;;;;;;;-128.00;-1.00;-1.00;18462;295;7506160;-33
2023/04/20 10:09:03;;;;;;;35.30;20.30;;;;;;;-128.00;-1.00;-1.00;18470;295;7504467;-35
2023/04/20 10:11:34;;;;;;;55.20;27.90;;;;;;;-128.00;-1.00;-1.00;18455;295;7505962;-32
2023/04/20 10:14:12;;;;;;;54.30;23.90;;;;;;;-128.00;-1.00;-1.00;18468;295;7504692;-32
2023/04/20 10:16:38;;;;;;;52.80;23.90;;;;;;;-128.00;-1.00;-1.00;18491;295;7504191;-36
2023/04/20 10:19:04;;;;;;;56.30;25.80;;;;;;;-128.00;-1.00;-1.00;18486;296;7506479;-33
2023/04/20 10:21:31;;;;;;;46.30;25.70;;;;;;;-128.00;-1.00;-1.00;18463;283;7504505;-32
2023/04/20 10:23:59;;;;;;;36.60;21.70;;;;;;;-128.00;-1.00;-1.00;18465;306;7504538;-32
2023/04/20 10:26:37;;;;;;;41.50;24.90;;;;;;;-128.00;-1.00;-1.00;18477;295;7505674;-36
2023/04/20 10:29:08;;;;;;;42.80;25.90;;;;;;;-128.00;-1.00;-1.00;18475;294;7505235;-32
2023/04/20 10:31:38;;;;;;;34.10;19.70;;;;;;;-128.00;-1.00;-1.00;18508;288;7504359;-36
2023/04/20 10:34:04;;;;;;;37.80;20.90;;;;;;;-128.00;-1.00;-1.00;18479;295;7504802;-36
2023/04/20 10:36:32;;;;;;;55.70;28.90;;;;;;;-128.00;-1.00;-1.00;18502;295;7504880;-36
2023/04/20 10:39:00;;;;;;;44.70;25.70;;;;;;;-128.00;-1.00;-1.00;18480;347;7505324;-32
2023/04/20 10:41:26;;;;;;;44.00;24.10;;;;;;;-128.00;-1.00;-1.00;18453;347;7504325;-36
2023/04/20 10:43:51;;;;;;;45.80;24.90;;;;;;;-128.00;-1.00;-1.00;18490;295;7504584;-36
2023/04/20 10:46:21;;;;;;;43.50;22.70;;;;;;;-128.00;-1.00;-1.00;18465;311;7506641;-35
2023/04/20 10:48:52;;;;;;;36.70;21.00;;;;;;;-128.00;-1.00;-1.00;18506;295;7504497;-35
2023/04/20 10:51:18;;;;;;;38.30;20.30;;;;;;;-128.00;-1.00;-1.00;18483;288;7506201;-35
2023/04/20 10:53:56;;;;;;;36.70;22.50;;;;;;;-128.00;-1.00;-1.00;18465;347;7504724;-32
2023/04/20 10:56:21;;;;;;;36.20;23.40;;;;;;;-128.00;-1.00;-1.00;18476;295;7505543;-36
2023/04/20 10:58:48;;;;;;;36.50;20.70;;;;;;;-128.00;-1.00;-1.00;18879;294;7505032;-31
2023/04/20 11:01:14;;;;;;;44.40;24.80;;;;;;;-128.00;-1.00;-1.00;18867;283;7504697;-35
2023/04/20 11:03:40;;;;;;;47.50;25.30;;;;;;;-128.00;-1.00;-1.00;18892;295;7505333;-35
2023/04/20 11:06:06;;;;;;;41.30;22.90;;;;;;;-128.00;-1.00;-1.00;18907;296;7504376;-35
2023/04/20 11:49:54;;;;;;;22.90;10.40;;;;;;;-99.53;14.33;19941.14;98327;295;1542758;-36
2023/04/20 11:52:22;;;;;;;12.90;7.70;;;;;;;-128.00;-1.00;-1.00;89054;296;3003684;-31
2023/04/20 11:54:49;;;;;;;18.10;12.90;;;;;;;-128.00;-1.00;-1.00;18868;295;7504398;-35
2023/04/20 11:57:15;;;;;;;31.50;14.10;;;;;;;-128.00;-1.00;-1.00;18873;295;7505199;-32
2023/04/20 11:59:42;;;;;;;15.60;9.00;;;;;;;-128.00;-1.00;-1.00;18903;295;7505380;-36
2023/04/20 12:02:08;;;;;;;14.00;7.80;;;;;;;-128.00;-1.00;-1.00;18875;295;7504183;-36
2023/04/20 12:04:34;;;;;;;25.50;14.60;;;;;;;-128.00;-1.00;-1.00;18894;341;7504698;-37
2023/04/20 12:07:04;;;;;;;16.80;9.90;;;;;;;-128.00;-1.00;-1.00;18854;288;7504430;-34
2023/04/20 12:09:29;;;;;;;18.90;11.00;;;;;;;-128.00;-1.00;-1.00;18495;296;7504651;-36
2023/04/20 12:11:56;;;;;;;21.10;9.90;;;;;;;-128.00;-1.00;-1.00;18473;288;7505989;-37
2023/04/20 12:14:22;;;;;;;16.50;9.10;;;;;;;-128.00;-1.00;-1.00;18468;296;7504394;-36
2023/04/20 12:16:47;;;;;;;10.20;5.80;;;;;;;-128.00;-1.00;-1.00;18465;295;7504730;-36
2023/04/20 12:19:13;;;;;;;17.80;10.90;;;;;;;-128.00;-1.00;-1.00;18458;295;7504784;-36
2023/04/20 12:21:39;;;;;;;14.00;7.40;;;;;;;-128.00;-1.00;-1.00;18497;288;7506534;-35
2023/04/20 12:24:05;;;;;;;16.40;8.20;;;;;;;-128.00;-1.00;-1.00;18479;295;7504564;-36
2023/04/20 12:26:31;;;;;;;10.60;5.70;;;;;;;-128.00;-1.00;-1.00;18472;295;7504593;-32
2023/04/20 12:28:56;;;;;;;11.40;6.90;;;;;;;-128.00;-1.00;-1.00;18481;296;7504851;-32
2023/04/20 12:31:23;;;;;;;17.80;13.80;;;;;;;-128.00;-1.00;-1.00;18466;297;7505279;-32
2023/04/20 12:33:49;;;;;;;7.00;5.70;;;;;;;-128.00;-1.00;-1.00;18471;284;7504499;-35